NY Terminal Aviation Weather Discussion (AFD) - Prepared: 359 PM EDT SAT AUG 30 2014
HIGH PRES OFF THE NEW ENGLAND COAST WILL MOVE OUT TO SEA THROUGH
TONIGHT AS A TROUGH OF LOW PRES APPROACHES FROM THE WEST.

VFR WITH BKN CU TODAY. SLY WINDS AROUND 10 KT...OCNL GUSTS 16-19KT
FOR THE CITY TERMINALS AND KISP THIS AFTN. WINDS DIMINISH AFTER
SUNDOWN.

MVFR CONDS LATE NIGHT/EARLY AM SUN...RETURNING TO VFR IN THE LATE
MORNING/EARLY AFTN. SCT SHRA/TSTMS STARTING MID-LATE AFTN MAINLY
FROM CITY TERMINALS AND POINTS N/W.

5 Day General Aviation Outlook:

.OUTLOOK FOR 18Z SUN THROUGH THU...
.SUN-MON NIGHT...MULTIPLE ROUNDS OF -SHRA/TSTMS AND OCNL MVFR.
.TUE-THU...MAINLY VFR.


NY Metro Terminal Aviation Weather Summary: (Explanation of Color Coding)
NOTE: All Wind Directions are TRUE (add 13 degrees for magnetic directions). Tail and Crosswind Calculations do account for the magnetic deviation of runways.

Click on the Airport Below for Specific Information at that Terminal

TAF Overview JFK TAF LGA TAF EWR TAF TEB TAF HPN TAF ISP TAF

Jump to AirSpace Impacts Section Condensed "lite" version of SPA page
**************************************************************************************
KJFK Terminal Weather: (Wind Directions Are True, Except Where Noted, ADD 13 degrees for Magnetic)

5MIN KJFK 302210Z 18012KT 10SM OVC035 24/18 A3018 -220 
     68 800 190/12 RMK AO2
5MIN KJFK 302205Z 18013KT 10SM OVC035 24/18 A3018 -220 
     68 800 190/13 RMK AO2
********************************************
****        MAGNETIC DIRECTIONS         ****
********************************************
KJFK 08/30/2014 22:19:06 GMT 190 16 KT
KJFK 08/30/2014 22:17:06 GMT 190 14 G19KT
KJFK 08/30/2014 22:15:06 GMT 180 11 G19KT
KJFK 08/30/2014 22:13:06 GMT 190 14 G19KT
KJFK 08/30/2014 22:11:06 GMT 180 12 G19KT
KJFK 08/30/2014 22:09:06 GMT 180 16 KT
KJFK 08/30/2014 22:07:06 GMT 180 13 G18KT
KJFK 08/30/2014 22:05:06 GMT 180 14 KT
KJFK 08/30/2014 22:03:06 GMT 180 14 KT
KJFK 08/30/2014 22:01:06 GMT 190 13 KT
SAUS70 KJFK 302200 RRI
METAR KJFK 302151Z 18013KT 10SM FEW028 BKN037 OVC048 23/18 A3019 RMK AO2
     SLP222 T02330178
FTNA35 KJFK 302049 RRC
KJFK 302043Z 3021/3124 17013KT P6SM SCT025 BKN040
     FM310200 20009KT P6SM SCT015 BKN035
     FM311000 20008KT P6SM BKN015
     FM311500 19012KT P6SM SCT020 BKN040
     FM311800 19016KT P6SM SCT040 SCT080
KJFK Forecaster Comments Not Available at This Time
jfk

JFK Hourly Forecast Temperature (C)

JFK Hourly TMPS
**************************************************************************************
KLGA Terminal Weather: (Wind Directions Are True, Except Where Noted, ADD 13 degrees for Magnetic)

5MIN KLGA 302210Z 17012KT 10SM OVC041 24/18 A3017 -200 
     68 800 180/12 RMK AO2 $
5MIN KLGA 302205Z 17015KT 10SM BKN041 OVC050 24/18 
     A3016 -200 68 800 180/15 RMK AO2 $
********************************************
****        MAGNETIC DIRECTIONS         ****
********************************************
KLGA 08/30/2014 22:19:52 GMT 190 13 KT
KLGA 08/30/2014 22:17:52 GMT 190 10 G14KT
KLGA 08/30/2014 22:15:51 GMT 210 12 G17KT
KLGA 08/30/2014 22:14:01 GMT 200 10 G17KT
KLGA 08/30/2014 22:11:52 GMT 180 12 G17KT
KLGA 08/30/2014 22:09:52 GMT 180 11 G17KT
KLGA 08/30/2014 22:08:01 GMT 180 13 G17KT
KLGA 08/30/2014 22:06:01 GMT 190 11 G20KT
KLGA 08/30/2014 22:04:01 GMT 190 11 G20KT
KLGA 08/30/2014 22:02:01 GMT 190 12 G20KT
SAUS70 KLGA 302200
METAR KLGA 302151Z 17011G19KT 10SM FEW028 BKN041 BKN050 24/18 A3016 RMK
     AO2 SLP214 T02390178 $
FTUS80 KLGA 302045 AAB
KLGA 302043Z 3021/3118 17012KT P6SM SCT025 BKN040
     FM310200 20008KT P6SM SCT015 BKN035
     FM311000 21008KT P6SM BKN015
     FM311500 20011KT P6SM SCT020 BKN040
KLGA Forecaster Comments Not Available at This Time
lga


**************************************************************************************

KEWR Terminal Weather: (Wind Directions Are True, Except Where Noted, ADD 13 degrees for Magnetic)

5MIN KEWR 302210Z 15008KT 10SM OVC034 24/18 A3016 -190 
     68 900 170/08 RMK AO2
5MIN KEWR 302205Z 15008KT 10SM FEW029 OVC036 24/18 
     A3016 -200 68 900 170/08 RMK AO2
********************************************
****        MAGNETIC DIRECTIONS         ****
********************************************
KEWR 08/30/2014 22:19:07 GMT 170 06 KT
KEWR 08/30/2014 22:17:28 GMT 180 05 KT
KEWR 08/30/2014 22:15:07 GMT 160 07 KT
KEWR 08/30/2014 22:13:07 GMT 160 06 KT
KEWR 08/30/2014 22:11:28 GMT 160 07 KT
KEWR 08/30/2014 22:09:07 GMT 170 05 KT
KEWR 08/30/2014 22:07:07 GMT 170 05 KT
KEWR 08/30/2014 22:05:28 GMT 190 08 KT
KEWR 08/30/2014 22:03:07 GMT 170 07 KT
KEWR 08/30/2014 22:01:07 GMT 190 08 KT
SAUS70 KEWR 302200
METAR KEWR 302151Z 17010KT 10SM FEW028 OVC038 24/18 A3016 RMK AO2 SLP213
     T02440183
FTUS80 KEWR 302045 AAA
KEWR 302043Z 3021/3124 16008KT P6SM SCT025 BKN040
     FM310100 20006KT P6SM SCT015 BKN035
     FM311000 21008KT P6SM BKN015
     FM311500 21010KT P6SM SCT020 BKN040
     FM311800 21012KT P6SM SCT040 SCT080
KEWR Forecaster Comments Not Available at This Time
ewr
Afternoon EWR Haze Potential Forecast: KEWR Haze Forecast Not Available at This Time
IS NOT AVAILABLE AT THIS TIME


******************************************************************************

KTEB Terminal Weather:
SAUS80 KTEB 302200
METAR KTEB 302151Z 17009KT 10SM OVC039 24/17 A3015 RMK AO2 SLP209
     T02440172
FTUS80 KTEB 302045 AAB
KTEB 302043Z 3021/3118 17007KT P6SM SCT025 BKN040
     FM310100 19005KT P6SM SCT015 BKN035
     FM311000 20006KT P6SM BKN015
     FM311500 21009KT 6SM HZ SCT020 BKN040
KTEB Forecaster Comments Not Available at This Time
teb

 


**************************************************************************************

KHPN Terminal Weather:
SAUS70 KHPN 302200 RRC
METAR KHPN 302156Z 18006KT 10SM FEW025 SCT034 23/17 A3018 RMK AO2 SLP215
     T02280172
FTUS80 KHPN 302045 AAA
KHPN 302043Z 3021/3118 17010KT P6SM SCT025 BKN040
     FM310000 VRB04KT P6SM SCT010 BKN035
     FM310600 VRB03KT 5SM BR BKN010
     FM311600 20007KT P6SM SCT015 BKN035 AMD NOT SKED
KHPN Forecaster Comments Not Available at This Time
HPN


******************************************************************************

KISP Terminal Weather:
SAUS70 KISP 302200 RRC
METAR KISP 302156Z 19010KT 10SM SCT025 BKN034 BKN250 23/16 A3018 RMK AO2
     SLP219 T02280161
FTUS80 KISP 302045 AAA
KISP 302043Z 3021/3118 18010KT P6SM SCT025 SCT035
     FM310000 20007KT P6SM SCT015 BKN035
     FM310800 21007KT 6SM BR BKN015
     FM311600 20012KT P6SM SCT020 SCT040
KISP Forecaster Comments Not Available at This Time
ISP

 


ZNY SWAP Season Information

(ZNY SWAP STATEMENT) (Click for PDF File) (ZNY BRIEFING) (Click for PDF File)

*******************************************************
***        NY AIR ROUTE TRAFFIC CONTROL CENTER      ***
***                DAILY SWAP STATEMENT             ***
*******************************************************
NY AIR ROUTE TRAFFIC CONTROL CENTER
DAILY SWAP STATEMENT
SATURDAY AUGUST 30, 2014
SWAP IS POSSIBLE ANYTIME AFTER 19Z.
ISOL TS WILL FORM IN ERN ZOB/WRN ZNY/NRN ZDC AFT 18Z. THESE TS MAY 
HAVE IMPACTS TO J95 THRU Q42.  MORE SCTD TS ARE LIKELY WELL WEST OF 
ZNY AFTER 21Z IN OH AND POINTS WWD.
ADDT'L INFO:
AZEZU-PAEPR-HANRI(L453-M201):  IMPACTS NOT EXPECTED. 
DITCH: IMPACTS NOT EXPECTED.
EAST GATES: IMPACTS NOT EXPECTED.
TOMORROW MORNINGS SWAP OUTLOOK:  SWAP IS POSSIBLE.

$$
KS




N90 AirSpace Impacts

N90 ZNY Gate TSTM Forecast    SWAP Day One Forecast

SWAP Day One Forecast    SWAP Day Two Outlook

National Collaborative Convective Forecast Product (CCFP) Forecasts (Mar-Oct)


Vertical Wind Profile
Untitled Document